Neligh, Nebraska
Current Conditions -  °F | °C
As of 12:35 AM on Wednesday 26 Nov 2014 (Local Time) from KBVN Reporting Station
Clear Clear  
Wind Chill: 29°   Ceiling: Unl
Heat Index: 35°   Visibility: 10mi
Dew Point: 29°   Wind: 8mph
Humidity: 80%   Direction: 310°NW
Pressure: 29.86"   Gusts: NA
Location:  42.13°N, 98.03°W
Report Text: KBVN 260635Z AUTO 31007KT 10SM CLR 02/M01 A2986 RMK AO2 T00171015
Loading
Personal Weather Stations






























Interactive Weather Map New forecast layout! Learn more

10-Day Weather Forecast

Advertisements
Track Severe Weather on mobile